createdAt,value
2023-05-25T00:00:31.312Z,7.50
2023-05-25T00:02:59.703Z,7.18
2023-05-25T00:05:27.580Z,7.57
2023-05-25T00:07:55.649Z,8.13
2023-05-25T00:10:24.025Z,8.43
2023-05-25T00:12:52.427Z,7.00
2023-05-25T00:15:19.268Z,7.78
2023-05-25T00:17:49.165Z,8.23
2023-05-25T00:20:16.194Z,7.45
2023-05-25T00:22:45.229Z,7.57
2023-05-25T00:25:12.515Z,7.85
2023-05-25T00:27:39.808Z,7.43
2023-05-25T00:30:08.707Z,8.35
2023-05-25T00:32:36.779Z,8.05
2023-05-25T00:35:03.817Z,8.60
2023-05-25T00:37:31.135Z,8.35
2023-05-25T00:39:57.786Z,8.15
2023-05-25T00:42:25.198Z,7.30
2023-05-25T00:44:51.869Z,8.45
2023-05-25T00:47:19.332Z,8.55
2023-05-25T00:49:46.099Z,7.45
2023-05-25T00:52:13.956Z,7.30
2023-05-25T00:54:40.577Z,7.43
2023-05-25T00:57:08.753Z,8.95
2023-05-25T00:59:41.216Z,8.18
2023-05-25T01:02:11.832Z,8.23
2023-05-25T01:04:45.094Z,8.57
2023-05-25T01:07:18.072Z,8.60
2023-05-25T01:09:45.629Z,8.27
2023-05-25T01:12:16.108Z,8.93
2023-05-25T01:14:43.738Z,8.02
2023-05-25T01:17:11.196Z,8.55
2023-05-25T01:19:41.005Z,8.40
2023-05-25T01:22:12.753Z,9.10
2023-05-25T01:24:53.844Z,8.32
2023-05-25T01:27:43.809Z,8.30
2023-05-25T01:30:13.930Z,9.45
2023-05-25T01:32:45.334Z,8.32
2023-05-25T01:35:13.201Z,9.15
2023-05-25T01:37:46.454Z,9.05
2023-05-25T01:42:41.217Z,8.98
2023-05-25T01:45:09.959Z,9.07
2023-05-25T01:48:14.813Z,8.85
2023-05-25T01:50:53.437Z,9.73
2023-05-25T01:53:31.617Z,9.82
2023-05-25T01:56:11.400Z,9.38
2023-05-25T01:58:45.352Z,10.05
2023-05-25T02:01:14.896Z,10.30
2023-05-25T02:03:42.824Z,10.88
2023-05-25T02:06:09.822Z,11.18
2023-05-25T02:08:37.321Z,10.30
2023-05-25T02:11:04.080Z,9.98
2023-05-25T02:13:31.426Z,11.30
2023-05-25T02:15:58.145Z,11.93
2023-05-25T02:18:25.493Z,11.88
2023-05-25T02:20:54.460Z,11.75
2023-05-25T02:23:21.970Z,11.25
2023-05-25T02:25:48.870Z,11.90
2023-05-25T02:28:16.651Z,11.75
2023-05-25T02:30:43.565Z,11.13
2023-05-25T02:33:10.820Z,10.93
2023-05-25T02:35:38.240Z,11.32
2023-05-25T02:38:05.850Z,11.15
2023-05-25T02:40:32.491Z,12.30
2023-05-25T02:42:59.816Z,10.15
2023-05-25T02:45:26.544Z,11.85
2023-05-25T02:47:53.867Z,10.82
2023-05-25T02:50:22.573Z,10.48
2023-05-25T02:52:52.505Z,10.00
2023-05-25T02:55:19.333Z,10.23
2023-05-25T02:57:46.982Z,10.55
2023-05-25T03:00:26.969Z,10.20
2023-05-25T03:02:54.476Z,10.77
2023-05-25T03:05:21.824Z,9.25
2023-05-25T03:07:49.404Z,11.15
2023-05-25T03:10:16.030Z,10.63
2023-05-25T03:12:43.904Z,11.27
2023-05-25T03:15:13.105Z,11.52
2023-05-25T03:17:40.744Z,10.40
2023-05-25T03:20:10.339Z,10.13
2023-05-25T03:22:42.113Z,10.80
2023-05-25T03:25:12.357Z,11.30
2023-05-25T03:27:40.772Z,12.23
2023-05-25T03:30:09.135Z,14.60
2023-05-25T03:32:36.673Z,13.15
2023-05-25T03:35:05.702Z,11.95
2023-05-25T03:37:33.542Z,11.20
2023-05-25T03:40:00.359Z,13.15
2023-05-25T03:42:28.235Z,12.38
2023-05-25T03:44:54.950Z,12.18
2023-05-25T03:47:22.355Z,10.88
2023-05-25T03:49:49.141Z,12.18
2023-05-25T03:52:16.519Z,11.82
2023-05-25T03:54:43.191Z,11.50
2023-05-25T03:57:10.713Z,10.93
2023-05-25T03:59:37.375Z,10.43
2023-05-25T04:02:04.852Z,11.27
2023-05-25T04:04:31.606Z,12.05
2023-05-25T04:06:58.962Z,11.73
2023-05-25T04:09:25.761Z,11.65
2023-05-25T04:11:53.040Z,11.70
2023-05-25T04:14:21.544Z,11.30
2023-05-25T04:16:49.699Z,12.13
2023-05-25T04:19:16.722Z,10.82
2023-05-25T04:21:43.989Z,11.32
2023-05-25T04:24:11.855Z,10.45
2023-05-25T04:26:40.515Z,10.85
2023-05-25T04:29:09.732Z,10.68
2023-05-25T04:32:09.840Z,11.05
2023-05-25T04:34:48.351Z,12.05
2023-05-25T04:37:21.764Z,11.80
2023-05-25T04:39:49.215Z,11.68
2023-05-25T04:42:17.294Z,11.95
2023-05-25T04:44:44.028Z,12.38
2023-05-25T04:47:12.379Z,11.07
2023-05-25T04:49:39.075Z,11.60
2023-05-25T04:52:08.574Z,12.05
2023-05-25T04:54:35.933Z,13.23
2023-05-25T04:57:03.756Z,12.95
2023-05-25T04:59:31.610Z,12.93
2023-05-25T05:01:59.406Z,13.05
2023-05-25T05:04:26.567Z,12.40
2023-05-25T05:06:57.370Z,11.05
2023-05-25T05:09:25.881Z,10.15
2023-05-25T05:11:56.211Z,9.45
2023-05-25T05:14:23.025Z,9.35
2023-05-25T05:16:50.430Z,8.10
2023-05-25T05:19:17.221Z,9.07
2023-05-25T05:21:44.763Z,8.07
2023-05-25T05:24:12.045Z,7.50
2023-05-25T05:26:56.208Z,7.97
2023-05-25T05:29:29.515Z,8.10
2023-05-25T05:31:57.694Z,7.78
2023-05-25T05:34:26.179Z,7.20
2023-05-25T05:36:57.977Z,7.93
2023-05-25T05:39:25.404Z,7.45
2023-05-25T05:41:52.761Z,8.45
2023-05-25T05:44:26.815Z,6.93
2023-05-25T05:47:02.464Z,7.63
2023-05-25T05:49:31.203Z,7.00
2023-05-25T05:52:00.168Z,7.43
2023-05-25T05:54:30.761Z,7.68
2023-05-25T05:57:01.689Z,6.75
2023-05-25T05:59:29.031Z,7.53
2023-05-25T06:01:56.157Z,7.18
2023-05-25T06:04:26.143Z,7.30
2023-05-25T06:06:52.787Z,7.43
2023-05-25T06:09:20.273Z,8.10
2023-05-25T06:11:47.534Z,7.50
2023-05-25T06:14:14.309Z,7.75
2023-05-25T06:16:44.013Z,7.85
2023-05-25T06:19:11.017Z,7.93
2023-05-25T06:21:38.289Z,8.60
2023-05-25T06:24:05.396Z,7.88
2023-05-25T06:26:32.693Z,7.20
2023-05-25T06:28:59.427Z,8.48
2023-05-25T06:31:26.939Z,8.02
2023-05-25T06:33:54.384Z,7.63
2023-05-25T06:36:22.125Z,7.47
2023-05-25T06:38:49.327Z,7.65
2023-05-25T06:41:16.904Z,7.50
2023-05-25T06:43:43.622Z,8.07
2023-05-25T06:46:18.497Z,8.10
2023-05-25T06:48:46.017Z,8.60
2023-05-25T06:51:13.611Z,8.15
2023-05-25T06:53:40.552Z,7.90
2023-05-25T06:56:07.944Z,8.68
2023-05-25T06:58:34.642Z,8.63
2023-05-25T07:01:02.246Z,8.57
2023-05-25T07:03:28.916Z,7.72
2023-05-25T07:05:56.313Z,8.65
2023-05-25T07:08:22.973Z,8.57
2023-05-25T07:10:50.569Z,7.20
2023-05-25T07:13:17.444Z,8.27
2023-05-25T07:15:44.937Z,8.25
2023-05-25T07:18:12.477Z,7.50
2023-05-25T07:20:43.938Z,8.30
2023-05-25T07:23:13.729Z,8.35
2023-05-25T07:25:42.155Z,9.23
2023-05-25T07:28:08.945Z,8.48
2023-05-25T07:30:35.997Z,7.93
2023-05-25T07:33:02.727Z,9.18
2023-05-25T07:35:31.941Z,8.90
2023-05-25T07:38:04.406Z,8.43
2023-05-25T07:40:32.009Z,8.98
2023-05-25T07:42:58.669Z,8.65
2023-05-25T07:45:26.232Z,8.60
2023-05-25T07:47:52.943Z,8.10
2023-05-25T07:50:20.384Z,8.88
2023-05-25T07:52:47.389Z,9.90
2023-05-25T07:55:14.742Z,9.55
2023-05-25T07:57:41.515Z,9.05
2023-05-25T08:00:09.908Z,8.30
2023-05-25T08:02:43.355Z,10.30
2023-05-25T08:05:10.883Z,10.15
2023-05-25T08:07:38.291Z,9.20
2023-05-25T08:10:07.441Z,8.93
2023-05-25T08:12:46.830Z,11.38
2023-05-25T08:15:15.679Z,10.07
2023-05-25T08:17:42.553Z,11.07
2023-05-25T08:20:10.684Z,12.20
2023-05-25T08:22:37.438Z,11.10
2023-05-25T08:25:05.615Z,11.48
2023-05-25T08:27:35.198Z,11.65
2023-05-25T08:30:06.080Z,10.82
2023-05-25T08:32:33.054Z,11.88
2023-05-25T08:35:02.015Z,11.35
2023-05-25T08:37:29.295Z,12.32
2023-05-25T08:39:56.465Z,13.02
2023-05-25T08:42:23.776Z,11.75
2023-05-25T08:44:51.238Z,11.57
2023-05-25T08:47:22.604Z,9.60
2023-05-25T08:49:51.604Z,9.32
2023-05-25T08:52:24.195Z,9.35
2023-05-25T08:54:55.682Z,9.52
2023-05-25T08:57:46.124Z,7.72
2023-05-25T09:00:16.163Z,7.30
2023-05-25T09:03:29.032Z,7.65
2023-05-25T09:05:57.616Z,7.35
2023-05-25T09:08:25.057Z,5.72
2023-05-25T09:10:53.576Z,7.00
2023-05-25T09:13:22.914Z,5.90
2023-05-25T09:15:50.793Z,8.20
2023-05-25T09:18:17.569Z,6.70
2023-05-25T09:20:47.061Z,7.55
2023-05-25T09:23:15.695Z,6.38
2023-05-25T09:25:44.043Z,6.63
2023-05-25T09:28:25.378Z,6.30
2023-05-25T09:30:54.231Z,8.07
2023-05-25T09:33:21.326Z,9.25
2023-05-25T09:35:49.022Z,8.32
2023-05-25T09:38:19.545Z,6.60
2023-05-25T09:40:47.349Z,6.82
2023-05-25T09:43:28.510Z,6.93
2023-05-25T09:46:04.445Z,6.63
2023-05-25T09:48:31.577Z,6.40
2023-05-25T09:50:59.090Z,4.63
2023-05-25T09:53:27.010Z,4.97
2023-05-25T09:55:54.608Z,5.18
2023-05-25T09:58:25.651Z,4.53
2023-05-25T10:00:56.186Z,5.25
2023-05-25T10:03:23.509Z,6.60
2023-05-25T10:05:53.581Z,9.45
2023-05-25T10:08:27.182Z,7.45
2023-05-25T10:10:55.987Z,7.28
2023-05-25T10:13:23.359Z,8.40
2023-05-25T10:15:54.193Z,12.23
2023-05-25T10:18:26.151Z,5.30
2023-05-25T10:21:03.552Z,4.50
2023-05-25T10:23:41.602Z,3.78
2023-05-25T10:26:10.122Z,4.30
2023-05-25T10:28:39.249Z,3.58
2023-05-25T10:31:09.114Z,3.55
2023-05-25T10:33:37.121Z,4.20
2023-05-25T10:38:35.135Z,3.90
2023-05-25T10:41:06.031Z,4.68
2023-05-25T10:43:33.439Z,4.25
2023-05-25T10:46:01.732Z,4.05
2023-05-25T10:48:38.718Z,3.88
2023-05-25T10:51:12.281Z,4.20
2023-05-25T10:53:39.251Z,4.70
2023-05-25T10:56:10.235Z,4.15
2023-05-25T10:58:42.702Z,4.45
2023-05-25T11:01:12.583Z,4.72
2023-05-25T11:03:48.441Z,4.15
2023-05-25T11:06:46.143Z,4.72
2023-05-25T11:09:27.738Z,4.53
2023-05-25T11:11:58.859Z,4.53
2023-05-25T11:14:30.670Z,4.28
2023-05-25T11:17:15.696Z,3.60
2023-05-25T11:19:50.732Z,4.40
2023-05-25T11:22:23.640Z,4.45
2023-05-25T11:24:54.069Z,5.67
2023-05-25T11:27:26.806Z,6.20
2023-05-25T11:29:57.849Z,6.00
2023-05-25T11:32:28.888Z,6.05
2023-05-25T11:34:58.811Z,4.88
2023-05-25T11:37:29.298Z,5.45
2023-05-25T11:39:56.811Z,4.60
2023-05-25T11:42:24.719Z,5.15
2023-05-25T11:44:52.317Z,4.43
2023-05-25T11:47:22.968Z,4.80
2023-05-25T11:49:50.474Z,4.32
2023-05-25T11:52:19.395Z,5.05
2023-05-25T11:54:46.600Z,4.28
2023-05-25T11:57:25.389Z,4.78
2023-05-25T11:59:53.171Z,4.97
2023-05-25T12:02:22.059Z,5.35
2023-05-25T12:05:01.594Z,5.57
2023-05-25T12:07:29.903Z,5.60
2023-05-25T12:10:08.462Z,4.95
2023-05-25T12:12:42.892Z,5.03
2023-05-25T12:15:12.332Z,3.95
2023-05-25T12:17:42.725Z,4.63
2023-05-25T12:20:15.654Z,4.63
2023-05-25T12:22:44.401Z,5.78
2023-05-25T12:25:13.156Z,4.45
2023-05-25T12:27:40.538Z,5.43
2023-05-25T12:30:10.239Z,4.65
2023-05-25T12:33:02.634Z,4.70
2023-05-25T12:35:44.253Z,5.40
2023-05-25T12:38:12.829Z,5.30
2023-05-25T12:40:41.693Z,5.10
2023-05-25T12:43:09.016Z,4.72
2023-05-25T12:45:40.721Z,5.07
2023-05-25T12:48:07.928Z,5.45
2023-05-25T12:50:37.183Z,5.88
2023-05-25T12:53:04.649Z,4.93
2023-05-25T12:55:33.692Z,5.43
2023-05-25T12:58:05.727Z,4.95
2023-05-25T13:00:35.653Z,4.82
2023-05-25T13:03:03.305Z,5.38
2023-05-25T13:05:37.142Z,4.70
2023-05-25T13:08:05.025Z,4.85
2023-05-25T13:10:33.394Z,5.68
2023-05-25T13:13:00.621Z,6.10
2023-05-25T13:15:28.535Z,4.93
2023-05-25T13:17:57.988Z,5.00
2023-05-25T13:20:27.186Z,5.20
2023-05-25T13:22:57.274Z,5.35
2023-05-25T13:25:27.774Z,5.07
2023-05-25T13:27:56.774Z,4.57
2023-05-25T13:30:24.166Z,4.70
2023-05-25T13:32:52.533Z,4.72
2023-05-25T13:35:34.388Z,4.70
2023-05-25T13:38:01.083Z,4.57
2023-05-25T13:40:28.711Z,4.72
2023-05-25T13:42:55.467Z,3.97
2023-05-25T13:45:22.576Z,4.80
2023-05-25T13:47:49.794Z,4.30
2023-05-25T13:50:17.344Z,3.83
2023-05-25T13:52:44.048Z,4.82
2023-05-25T13:55:11.534Z,4.32
2023-05-25T13:57:38.261Z,4.70
2023-05-25T14:00:07.895Z,4.57
2023-05-25T14:02:35.283Z,4.53
2023-05-25T14:05:02.510Z,3.90
2023-05-25T14:07:29.795Z,4.68
2023-05-25T14:09:58.200Z,4.93
2023-05-25T14:12:26.538Z,5.07
2023-05-25T14:14:53.443Z,3.90
2023-05-25T14:17:24.206Z,4.47
2023-05-25T14:19:51.290Z,4.35
2023-05-25T14:22:19.410Z,4.95
2023-05-25T14:24:46.075Z,4.40
2023-05-25T14:27:13.404Z,4.97
2023-05-25T14:29:40.103Z,4.68
2023-05-25T14:32:07.452Z,5.60
2023-05-25T14:34:34.090Z,5.50
2023-05-25T14:37:01.353Z,5.15
2023-05-25T14:39:28.352Z,5.22
2023-05-25T14:41:56.359Z,4.32
2023-05-25T14:44:23.084Z,5.07
2023-05-25T14:46:51.190Z,5.00
2023-05-25T14:49:17.958Z,5.18
2023-05-25T14:51:45.210Z,5.45
2023-05-25T14:54:13.414Z,4.93
2023-05-25T14:56:40.882Z,5.28
2023-05-25T14:59:07.644Z,5.20
2023-05-25T15:01:35.275Z,4.50
2023-05-25T15:04:02.139Z,6.03
2023-05-25T15:06:29.559Z,5.97
2023-05-25T15:08:56.251Z,6.10
2023-05-25T15:11:23.813Z,5.40
2023-05-25T15:13:50.689Z,5.32
2023-05-25T15:16:18.097Z,5.05
2023-05-25T15:18:45.306Z,4.20
2023-05-25T15:21:12.847Z,4.30
2023-05-25T15:23:39.481Z,3.97
2023-05-25T15:26:08.406Z,4.07
2023-05-25T15:28:35.140Z,4.25
2023-05-25T15:31:03.515Z,4.93
2023-05-25T15:33:48.618Z,4.20
2023-05-25T15:36:20.644Z,4.20
2023-05-25T15:38:49.050Z,4.85
2023-05-25T15:41:17.791Z,4.30
2023-05-25T15:43:54.293Z,4.45
2023-05-25T15:46:21.653Z,4.70
2023-05-25T15:48:48.399Z,5.63
2023-05-25T15:51:15.428Z,6.07
2023-05-25T15:53:42.046Z,5.80
2023-05-25T15:56:09.313Z,5.13
2023-05-25T15:58:35.975Z,5.07
2023-05-25T16:01:03.770Z,4.32
2023-05-25T16:03:30.550Z,4.90
2023-05-25T16:05:57.996Z,4.18
2023-05-25T16:08:24.703Z,3.90
2023-05-25T16:10:52.205Z,4.47
2023-05-25T16:13:18.881Z,4.25
2023-05-25T16:15:46.753Z,5.30
2023-05-25T16:18:13.585Z,4.28
2023-05-25T16:20:41.092Z,4.25
2023-05-25T16:23:07.921Z,4.47
2023-05-25T16:25:35.199Z,4.70
2023-05-25T16:28:01.860Z,4.55
2023-05-25T16:30:28.598Z,4.20
2023-05-25T16:32:55.298Z,4.53
2023-05-25T16:35:22.295Z,5.22
2023-05-25T16:37:48.921Z,5.93
2023-05-25T16:40:16.719Z,5.10
2023-05-25T16:42:43.388Z,5.38
2023-05-25T16:45:10.707Z,5.10
2023-05-25T16:47:37.479Z,4.88
2023-05-25T16:50:05.293Z,4.57
2023-05-25T16:52:31.992Z,4.85
2023-05-25T16:54:59.404Z,4.45
2023-05-25T16:57:26.112Z,4.18
2023-05-25T16:59:53.751Z,4.47
2023-05-25T17:02:20.700Z,4.90
2023-05-25T17:04:48.058Z,5.30
2023-05-25T17:07:14.857Z,4.78
2023-05-25T17:09:42.180Z,4.40
2023-05-25T17:12:09.042Z,4.57
2023-05-25T17:14:36.552Z,4.57
2023-05-25T17:17:03.894Z,4.45
2023-05-25T17:19:31.345Z,4.68
2023-05-25T17:21:58.108Z,4.32
2023-05-25T17:24:25.260Z,5.03
2023-05-25T17:26:51.980Z,4.60
2023-05-25T17:29:19.077Z,4.82
2023-05-25T17:31:48.330Z,5.00
2023-05-25T17:34:16.725Z,4.60
2023-05-25T17:36:43.461Z,5.32
2023-05-25T17:39:10.876Z,4.75
2023-05-25T17:41:37.598Z,4.95
2023-05-25T17:44:04.894Z,5.65
2023-05-25T17:46:31.791Z,5.05
2023-05-25T17:48:59.098Z,4.97
2023-05-25T17:51:25.849Z,4.32
2023-05-25T17:53:53.132Z,4.88
2023-05-25T17:56:19.890Z,5.20
2023-05-25T17:58:48.000Z,5.20
2023-05-25T18:01:15.848Z,5.55
2023-05-25T18:03:43.679Z,5.22
2023-05-25T18:06:10.448Z,4.88
2023-05-25T18:08:37.695Z,5.50
2023-05-25T18:11:05.196Z,5.65
2023-05-25T18:13:32.549Z,6.18
2023-05-25T18:15:59.552Z,6.10
2023-05-25T18:18:26.861Z,5.32
2023-05-25T18:20:53.577Z,5.95
2023-05-25T18:23:22.429Z,5.97
2023-05-25T18:25:49.174Z,6.07
2023-05-25T18:28:16.506Z,6.35
2023-05-25T18:30:43.348Z,6.22
2023-05-25T18:33:10.991Z,5.78
2023-05-25T18:35:38.050Z,7.10
2023-05-25T18:38:06.547Z,6.15
2023-05-25T18:40:33.267Z,5.00
2023-05-25T18:43:00.294Z,5.88
2023-05-25T18:45:26.958Z,6.25
2023-05-25T18:47:54.289Z,6.63
2023-05-25T18:50:21.272Z,5.82
2023-05-25T18:52:50.927Z,6.95
2023-05-25T18:55:19.012Z,6.30
2023-05-25T18:57:46.743Z,7.25
2023-05-25T19:00:14.046Z,6.05
2023-05-25T19:02:42.659Z,6.72
2023-05-25T19:05:12.365Z,6.32
2023-05-25T19:07:51.034Z,7.57
2023-05-25T19:10:25.294Z,5.82
2023-05-25T19:12:52.148Z,6.63
2023-05-25T19:15:19.069Z,6.47
2023-05-25T19:17:46.743Z,5.93
2023-05-25T19:20:13.713Z,6.55
2023-05-25T19:22:42.100Z,6.28
2023-05-25T19:25:09.046Z,6.05
2023-05-25T19:27:36.335Z,6.30
2023-05-25T19:30:03.956Z,5.95
2023-05-25T19:32:31.083Z,6.38
2023-05-25T19:34:57.781Z,6.25
2023-05-25T19:37:25.935Z,6.13
2023-05-25T19:39:52.857Z,6.40
2023-05-25T19:42:19.872Z,6.22
2023-05-25T19:44:46.597Z,7.80
2023-05-25T19:47:13.926Z,6.97
2023-05-25T19:49:40.889Z,6.72
2023-05-25T19:52:07.719Z,6.32
2023-05-25T19:54:34.863Z,7.43
2023-05-25T19:57:02.647Z,6.68
2023-05-25T19:59:31.569Z,7.43
2023-05-25T20:01:58.524Z,7.15
2023-05-25T20:04:26.013Z,7.18
2023-05-25T20:06:53.546Z,6.75
2023-05-25T20:09:24.694Z,7.30
2023-05-25T20:11:52.617Z,6.95
2023-05-25T20:14:20.223Z,7.18
2023-05-25T20:16:47.311Z,7.25
2023-05-25T20:19:14.610Z,6.53
2023-05-25T20:21:41.248Z,7.45
2023-05-25T20:24:08.567Z,6.35
2023-05-25T20:26:35.362Z,7.20
2023-05-25T20:29:02.284Z,6.72
2023-05-25T20:31:29.007Z,7.63
2023-05-25T20:33:56.085Z,7.50
2023-05-25T20:36:22.740Z,7.78
2023-05-25T20:38:50.091Z,8.35
2023-05-25T20:41:16.809Z,6.97
2023-05-25T20:43:44.179Z,7.03
2023-05-25T20:46:11.458Z,7.30
2023-05-25T20:48:39.743Z,6.97
2023-05-25T20:51:06.473Z,8.27
2023-05-25T20:53:33.943Z,6.88
2023-05-25T20:56:01.816Z,7.60
2023-05-25T20:58:28.836Z,7.15
2023-05-25T21:00:55.862Z,8.32
2023-05-25T21:03:22.606Z,8.02
2023-05-25T21:05:49.378Z,8.95
2023-05-25T21:08:16.295Z,8.50
2023-05-25T21:10:43.387Z,7.63
2023-05-25T21:13:10.109Z,8.25
2023-05-25T21:15:37.065Z,8.45
2023-05-25T21:18:05.390Z,7.80
2023-05-25T21:20:32.627Z,6.93
2023-05-25T21:22:59.433Z,7.50
2023-05-25T21:25:26.084Z,7.75
2023-05-25T21:27:54.209Z,8.38
2023-05-25T21:30:24.223Z,8.63
2023-05-25T21:32:51.034Z,8.98
2023-05-25T21:35:18.040Z,8.95
2023-05-25T21:37:45.702Z,9.48
2023-05-25T21:40:12.726Z,9.40
2023-05-25T21:42:39.773Z,9.65
2023-05-25T21:45:07.271Z,10.02
2023-05-25T21:47:34.065Z,9.10
2023-05-25T21:50:01.165Z,10.10
2023-05-25T21:52:28.157Z,9.23
2023-05-25T21:54:54.789Z,8.55
2023-05-25T21:57:22.184Z,8.73
2023-05-25T21:59:48.956Z,8.88
2023-05-25T22:02:16.371Z,9.13
2023-05-25T22:04:43.055Z,9.73
2023-05-25T22:07:10.386Z,8.98
2023-05-25T22:09:37.116Z,9.55
2023-05-25T22:12:04.653Z,9.30
2023-05-25T22:14:31.353Z,9.82
2023-05-25T22:16:58.698Z,8.85
2023-05-25T22:19:25.397Z,9.13
2023-05-25T22:21:53.628Z,10.25
2023-05-25T22:24:20.454Z,9.68
2023-05-25T22:26:47.745Z,9.18
2023-05-25T22:29:14.523Z,8.55
2023-05-25T22:31:41.887Z,8.93
2023-05-25T22:34:08.697Z,8.60
2023-05-25T22:36:37.340Z,9.63
2023-05-25T22:39:04.044Z,9.15
2023-05-25T22:41:31.643Z,8.57
2023-05-25T22:43:58.362Z,8.93
2023-05-25T22:46:25.714Z,9.20
2023-05-25T22:48:52.371Z,8.77
2023-05-25T22:51:19.701Z,9.23
2023-05-25T22:53:46.503Z,9.23
2023-05-25T22:56:13.848Z,9.40
2023-05-25T22:58:40.777Z,8.85
2023-05-25T23:01:08.214Z,9.25
2023-05-25T23:03:35.023Z,9.10
2023-05-25T23:06:02.352Z,8.98
2023-05-25T23:08:29.055Z,9.65
2023-05-25T23:10:56.316Z,9.65
2023-05-25T23:13:24.105Z,8.93
2023-05-25T23:15:51.509Z,8.98
2023-05-25T23:18:18.175Z,7.50
2023-05-25T23:20:45.532Z,9.35
2023-05-25T23:23:12.632Z,9.50
2023-05-25T23:25:39.889Z,9.73
2023-05-25T23:28:06.641Z,9.57
2023-05-25T23:30:34.172Z,7.85
2023-05-25T23:33:01.012Z,8.80
2023-05-25T23:35:28.837Z,9.68
2023-05-25T23:37:57.428Z,9.55
2023-05-25T23:40:24.759Z,7.78
2023-05-25T23:42:51.962Z,9.45
2023-05-25T23:45:19.338Z,8.45
2023-05-25T23:47:46.174Z,9.40
2023-05-25T23:50:13.499Z,8.48
2023-05-25T23:52:41.285Z,8.80
2023-05-25T23:55:08.881Z,8.52
2023-05-25T23:57:36.534Z,8.43
